createdAt,value
2019-01-10T09:16:15.752Z,20.27
2019-01-10T09:17:15.625Z,20.48
2019-01-10T09:18:57.271Z,20.72
2019-01-10T09:19:57.225Z,20.82
2019-01-10T09:21:23.477Z,20.96
2019-01-10T09:45:42.808Z,21.71
2019-01-10T09:46:35.494Z,21.67
2019-01-10T09:47:34.473Z,21.76
2019-01-10T09:48:37.985Z,21.58
2019-01-10T09:49:37.966Z,21.38
2019-01-10T09:50:38.032Z,21.22
2019-01-10T10:21:01.903Z,23.47
2019-01-10T10:21:45.084Z,23.21
2019-01-10T10:22:45.045Z,23.01
2019-01-10T10:23:44.998Z,23.01
2019-01-10T10:24:44.945Z,23.38
2019-01-10T10:25:23.455Z,24.77
2019-01-10T10:26:23.533Z,25.12
2019-01-10T10:27:23.401Z,25.26
2019-01-10T10:28:23.375Z,24.69
2019-01-10T10:29:23.355Z,23.94
2019-01-10T10:30:23.302Z,23.35
2019-01-10T10:31:23.247Z,22.86
2019-01-10T10:32:23.227Z,22.48
2019-01-10T10:33:23.157Z,22.24
2019-01-10T10:34:23.096Z,22.05
2019-01-10T10:35:23.094Z,21.80
2019-01-10T10:36:22.998Z,21.66
2019-01-10T10:37:22.963Z,21.51
2019-01-10T10:38:22.912Z,21.41
2019-01-10T10:39:22.844Z,21.37
2019-01-10T10:40:22.786Z,21.23
2019-01-10T10:41:22.735Z,21.22
2019-01-10T10:42:22.678Z,21.04
2019-01-10T10:43:22.616Z,21.04
2019-01-10T10:44:22.588Z,21.08
2019-01-10T10:45:22.500Z,21.00
2019-01-10T10:46:22.439Z,21.01
2019-01-10T10:47:22.374Z,20.90
2019-01-10T10:48:22.319Z,20.96
2019-01-10T10:49:22.254Z,20.94
2019-01-10T10:50:22.210Z,20.90
2019-01-10T10:51:22.135Z,20.86
2019-01-10T10:52:22.074Z,20.93
2019-01-10T10:53:22.019Z,20.91
2019-01-10T10:54:21.960Z,20.91
2019-01-10T10:55:21.913Z,20.88
2019-01-10T10:56:21.958Z,20.85
2019-01-10T10:57:21.967Z,20.86
2019-01-10T10:58:21.749Z,20.78
2019-01-10T10:59:21.684Z,20.83
2019-01-10T11:00:21.622Z,20.78
2019-01-10T11:01:21.565Z,20.82
2019-01-10T11:02:21.524Z,20.82
2019-01-10T11:03:21.453Z,20.86
2019-01-10T11:04:21.393Z,20.75
2019-01-10T11:05:21.433Z,20.82
2019-01-10T11:06:21.278Z,20.74
2019-01-10T11:07:21.220Z,20.68
2019-01-10T11:08:21.179Z,20.75
2019-01-10T11:09:21.102Z,20.76
2019-01-10T11:10:21.036Z,20.79
2019-01-10T11:11:20.981Z,20.71
2019-01-10T11:12:20.918Z,20.81
2019-01-10T11:13:20.856Z,20.86
2019-01-10T11:14:20.814Z,20.76
2019-01-10T11:15:20.728Z,20.74
2019-01-10T11:16:20.661Z,20.82
2019-01-10T11:17:20.588Z,20.85
2019-01-10T11:18:20.521Z,20.78
2019-01-10T11:19:20.472Z,20.81
2019-01-10T11:20:20.418Z,20.72
2019-01-10T11:21:20.672Z,20.81
2019-01-10T11:22:20.287Z,20.81
2019-01-10T11:23:20.239Z,20.81
2019-01-10T11:24:20.164Z,20.75
2019-01-10T11:25:20.098Z,20.82
2019-01-10T11:26:20.049Z,20.81
2019-01-10T11:27:19.968Z,20.79
2019-01-10T11:28:19.908Z,20.85
2019-01-10T11:29:19.840Z,20.82
2019-01-10T11:30:19.777Z,20.81
2019-01-10T11:31:19.703Z,20.74
2019-01-10T11:32:19.657Z,20.79
2019-01-10T11:33:19.570Z,20.82
2019-01-10T11:34:19.515Z,20.82
2019-01-10T11:35:19.452Z,20.78
2019-01-10T11:36:19.395Z,20.83
2019-01-10T11:37:19.340Z,20.81
2019-01-10T11:38:19.295Z,20.78
2019-01-10T11:39:19.215Z,20.82
2019-01-10T11:40:19.156Z,20.83
2019-01-10T11:41:19.087Z,20.81
2019-01-10T11:42:19.024Z,20.78
2019-01-10T11:43:18.973Z,20.72
2019-01-10T11:44:18.928Z,20.68
2019-01-10T11:45:18.855Z,20.83
2019-01-10T11:46:19.659Z,20.78
2019-01-10T11:47:18.739Z,20.83
2019-01-10T11:48:18.677Z,20.83
2019-01-10T11:49:18.613Z,20.85
2019-01-10T11:50:18.664Z,20.82
2019-01-10T11:51:18.508Z,20.86
2019-01-10T11:52:18.436Z,20.86
2019-01-10T11:53:18.379Z,20.82
2019-01-10T11:54:18.322Z,20.83
2019-01-10T11:55:18.258Z,20.78
2019-01-10T11:56:18.231Z,20.83
2019-01-10T11:57:18.137Z,20.85
2019-01-10T11:58:18.079Z,20.90
2019-01-10T11:59:18.033Z,20.86
2019-01-10T12:00:17.970Z,20.88
2019-01-10T12:01:17.909Z,20.83
2019-01-10T12:02:17.861Z,20.86
2019-01-10T12:03:17.796Z,20.83
2019-01-10T12:04:17.735Z,20.86
2019-01-10T12:05:17.676Z,20.91
2019-01-10T12:06:17.611Z,20.86
2019-01-10T12:07:17.546Z,20.86
2019-01-10T12:08:17.511Z,20.85
2019-01-10T12:09:17.424Z,20.82
2019-01-10T12:10:17.360Z,20.86
2019-01-10T12:11:17.307Z,20.88
2019-01-10T12:12:17.244Z,20.86
2019-01-10T12:13:17.183Z,20.86
2019-01-10T12:14:17.141Z,20.82
2019-01-10T12:15:17.077Z,20.83
2019-01-10T12:16:17.012Z,20.86
2019-01-10T12:17:16.953Z,20.85
2019-01-10T12:18:16.886Z,20.90
2019-01-10T12:19:16.826Z,20.85
2019-01-10T12:20:16.857Z,20.85
2019-01-10T12:21:16.694Z,20.88
2019-01-10T12:22:16.630Z,20.94
2019-01-10T12:23:16.916Z,20.96
2019-01-10T12:24:16.506Z,20.86
2019-01-10T12:25:16.443Z,20.86
2019-01-10T12:26:16.405Z,20.91
2019-01-10T12:27:16.341Z,20.88
2019-01-10T12:28:16.265Z,20.88
2019-01-10T12:29:16.203Z,20.90
2019-01-10T12:30:16.241Z,20.91
2019-01-10T12:31:16.085Z,20.85
2019-01-10T12:32:16.036Z,21.01
2019-01-10T12:33:15.970Z,20.86
2019-01-10T12:34:15.911Z,20.91
2019-01-10T12:35:15.852Z,21.01
2019-01-10T12:36:15.791Z,21.06
2019-01-10T12:37:15.731Z,21.00
2019-01-10T12:38:15.680Z,21.03
2019-01-10T12:39:15.703Z,20.97
2019-01-10T12:40:15.549Z,21.00
2019-01-10T12:41:15.480Z,21.00
2019-01-10T12:42:15.423Z,21.01
2019-01-10T12:43:15.364Z,21.00
2019-01-10T12:44:15.318Z,20.98
2019-01-10T12:45:15.242Z,20.98
2019-01-10T12:46:15.244Z,21.03
2019-01-10T12:47:15.107Z,21.00
2019-01-10T12:48:15.046Z,21.01
2019-01-10T12:49:14.979Z,21.08
2019-01-10T12:50:14.953Z,21.06
2019-01-10T12:51:14.859Z,21.11
2019-01-10T12:52:14.798Z,21.06
2019-01-10T12:53:14.732Z,20.98
2019-01-10T12:54:14.675Z,21.08
2019-01-10T12:55:14.626Z,21.01
2019-01-10T12:56:14.582Z,21.12
2019-01-10T12:57:14.501Z,20.98
2019-01-10T12:58:14.444Z,21.06
2019-01-10T12:59:14.393Z,21.01
2019-01-10T13:00:14.335Z,20.97
2019-01-10T13:01:14.301Z,21.08
2019-01-10T13:02:14.236Z,21.06
2019-01-10T13:03:14.169Z,21.01
2019-01-10T13:04:14.108Z,21.12
2019-01-10T13:05:14.049Z,21.08
2019-01-10T13:06:13.985Z,21.04
2019-01-10T13:07:13.975Z,21.09
2019-01-10T13:08:14.209Z,21.12
2019-01-10T13:09:13.816Z,21.08
2019-01-10T13:10:13.739Z,21.13
2019-01-10T13:11:13.685Z,21.12
2019-01-10T13:12:13.623Z,21.13
2019-01-10T13:13:13.562Z,21.12
2019-01-10T13:14:13.528Z,21.11
2019-01-10T13:15:13.456Z,21.11
2019-01-10T13:16:13.387Z,21.15
2019-01-10T13:17:13.336Z,21.19
2019-01-10T13:18:13.272Z,21.18
2019-01-10T13:19:13.209Z,21.19
2019-01-10T13:20:13.182Z,21.13
2019-01-10T13:21:13.086Z,21.18
2019-01-10T13:22:13.030Z,21.18
2019-01-10T13:23:12.980Z,21.13
2019-01-10T13:24:12.912Z,21.18
2019-01-10T13:25:12.896Z,21.18
2019-01-10T13:26:12.909Z,21.25
2019-01-10T13:27:12.720Z,21.18
2019-01-10T13:28:12.665Z,21.16
2019-01-10T13:29:12.607Z,21.23
2019-01-10T13:30:12.546Z,21.25
2019-01-10T13:31:12.490Z,21.27
2019-01-10T13:32:12.449Z,21.30
2019-01-10T13:33:12.375Z,21.21
2019-01-10T13:34:12.324Z,21.18
2019-01-10T13:35:12.264Z,21.23
2019-01-10T13:36:12.251Z,21.30
2019-01-10T13:37:12.170Z,21.25
2019-01-10T13:38:12.120Z,21.25
2019-01-10T13:39:12.047Z,21.23
2019-01-10T13:40:11.989Z,21.22
2019-01-10T13:41:11.929Z,21.16
2019-01-10T13:42:11.877Z,21.22
2019-01-10T13:43:11.817Z,21.22
2019-01-10T13:44:11.775Z,21.27
2019-01-10T13:45:11.693Z,21.25
2019-01-10T13:46:11.631Z,21.27
2019-01-10T13:47:11.572Z,21.28
2019-01-10T13:48:11.511Z,21.25
2019-01-10T13:49:11.452Z,21.27
2019-01-10T13:50:11.476Z,21.23
2019-01-10T13:51:11.332Z,21.25
2019-01-10T13:52:11.271Z,21.23
2019-01-10T13:53:11.204Z,21.25
2019-01-10T13:54:11.126Z,21.25
2019-01-10T13:55:11.065Z,21.27
2019-01-10T13:56:11.043Z,21.22
2019-01-10T13:57:10.927Z,21.21
2019-01-10T13:58:10.868Z,21.22
2019-01-10T14:00:10.737Z,21.27
2019-01-10T14:03:27.749Z,19.24
2019-01-10T14:04:27.842Z,16.99
2019-01-10T14:05:27.726Z,14.82
2019-01-10T14:06:27.717Z,12.91
2019-01-10T14:07:27.703Z,11.13
2019-01-10T14:08:27.681Z,9.64
2019-01-10T14:09:27.694Z,8.42
2019-01-10T14:10:27.675Z,7.51
2019-01-10T14:11:27.655Z,6.62
2019-01-10T14:12:27.642Z,5.91
2019-01-10T14:13:27.630Z,5.48
2019-01-10T14:14:27.623Z,5.06
2019-01-10T14:15:27.629Z,4.56
2019-01-10T14:16:27.601Z,4.24
2019-01-10T14:17:27.588Z,4.12
2019-01-10T14:18:27.578Z,3.75
2019-01-10T14:19:27.566Z,3.58
2019-01-10T14:20:27.560Z,3.42
2019-01-10T14:21:27.559Z,3.27
2019-01-10T14:22:27.536Z,3.30
2019-01-10T14:23:27.639Z,3.02
2019-01-10T14:24:27.513Z,2.88
2019-01-10T14:25:27.505Z,2.88
2019-01-10T14:26:27.494Z,2.88
2019-01-10T14:27:27.594Z,2.88
2019-01-10T14:28:27.473Z,2.90
2019-01-10T14:29:27.460Z,2.76
2019-01-10T14:30:27.449Z,2.69
2019-01-10T14:31:27.443Z,2.67
2019-01-10T14:32:27.427Z,2.72
2019-01-10T14:33:27.447Z,2.54
2019-01-10T14:34:27.411Z,2.51
2019-01-10T14:35:27.398Z,2.55
2019-01-10T14:36:27.385Z,2.48
2019-01-10T14:37:27.375Z,2.41
2019-01-10T14:38:27.366Z,2.44
2019-01-10T14:39:27.369Z,2.44
2019-01-10T14:40:27.347Z,2.44
2019-01-10T14:41:27.334Z,2.44
2019-01-10T14:42:27.337Z,2.41
2019-01-10T14:43:27.315Z,2.41
2019-01-10T14:44:27.305Z,2.36
2019-01-10T14:45:27.304Z,2.40
2019-01-10T14:46:27.283Z,2.41
2019-01-10T14:47:27.270Z,2.45
2019-01-10T14:48:27.266Z,2.30
2019-01-10T14:49:27.247Z,2.31
2019-01-10T14:50:27.237Z,2.40
2019-01-10T14:51:27.244Z,2.48
2019-01-10T14:52:27.218Z,2.40
2019-01-10T14:53:27.209Z,2.40
2019-01-10T14:54:27.205Z,2.27
2019-01-10T14:55:27.192Z,2.36
2019-01-10T14:56:27.173Z,2.36
2019-01-10T14:57:27.183Z,2.31
2019-01-10T14:58:27.170Z,2.36
2019-01-10T14:59:27.144Z,2.40
2019-01-10T15:00:27.135Z,2.30
2019-01-10T15:01:27.126Z,2.36
2019-01-10T15:02:27.113Z,2.31
2019-01-10T15:03:27.115Z,2.36
2019-01-10T15:04:27.090Z,2.29
2019-01-10T15:05:27.086Z,2.27
2019-01-10T15:06:27.071Z,2.26
2019-01-10T15:07:27.061Z,2.29
2019-01-10T15:08:27.052Z,2.30
2019-01-10T15:09:27.072Z,2.23
2019-01-10T15:10:27.029Z,2.18
2019-01-10T15:11:27.016Z,2.27
2019-01-10T15:12:27.007Z,2.27
2019-01-10T15:13:26.996Z,2.23
2019-01-10T15:14:26.987Z,2.09
2019-01-10T15:15:27.078Z,2.06
2019-01-10T15:16:26.973Z,2.09
2019-01-10T15:17:26.952Z,2.08
2019-01-10T15:18:26.946Z,2.15
2019-01-10T15:19:26.933Z,2.08
2019-01-10T15:20:26.926Z,2.11
2019-01-10T15:21:26.952Z,2.22
2019-01-10T15:22:26.900Z,2.08
2019-01-10T15:23:26.889Z,2.22
2019-01-10T15:24:26.875Z,2.11
2019-01-10T15:25:26.868Z,2.09
2019-01-10T15:26:26.861Z,2.16
2019-01-10T15:27:26.965Z,2.15
2019-01-10T15:28:26.832Z,2.05
2019-01-10T15:29:26.832Z,2.02
2019-01-10T15:30:26.821Z,2.04
2019-01-10T15:31:26.806Z,1.98
2019-01-10T15:32:26.797Z,2.06
2019-01-10T15:33:26.813Z,2.11
2019-01-10T15:34:26.775Z,2.02
2019-01-10T15:35:26.764Z,1.97
2019-01-10T15:36:26.758Z,1.98
2019-01-10T15:37:26.742Z,1.93
2019-01-10T15:38:26.729Z,1.92
2019-01-10T15:39:26.832Z,1.97
2019-01-10T15:40:26.724Z,1.98
2019-01-10T15:41:26.701Z,1.97
2019-01-10T15:42:26.692Z,1.89
2019-01-10T15:43:26.675Z,2.04
2019-01-10T15:44:29.199Z,1.90
2019-01-10T15:45:26.674Z,1.93
2019-01-10T15:46:26.650Z,1.94
2019-01-10T15:47:26.634Z,1.90
2019-01-10T15:48:26.621Z,1.93
2019-01-10T15:49:26.615Z,1.83
2019-01-10T15:50:26.612Z,1.79
2019-01-10T15:51:26.614Z,1.79
2019-01-10T15:52:26.599Z,1.89
2019-01-10T15:53:26.580Z,1.97
2019-01-10T15:54:26.562Z,1.92
2019-01-10T15:55:26.553Z,1.93
2019-01-10T15:56:26.549Z,1.93
2019-01-10T15:57:26.635Z,1.94
2019-01-10T15:58:26.522Z,1.94
2019-01-10T15:59:26.507Z,1.93
2019-01-10T16:00:26.503Z,1.90
2019-01-10T16:01:26.493Z,1.93
2019-01-10T16:02:26.516Z,1.90
2019-01-10T16:03:26.490Z,2.01
2019-01-10T16:04:26.455Z,1.84
2019-01-10T16:05:26.446Z,1.78
2019-01-10T16:06:26.439Z,1.82
2019-01-10T16:07:27.080Z,1.83
2019-01-10T16:08:26.423Z,1.79
2019-01-10T16:09:26.420Z,1.89
2019-01-10T16:10:26.413Z,1.83
2019-01-10T16:11:26.381Z,1.92
2019-01-10T16:12:26.369Z,1.86
2019-01-10T16:13:26.359Z,1.94
2019-01-10T16:14:26.357Z,1.83
2019-01-10T16:15:26.362Z,1.74
2019-01-10T16:16:26.330Z,1.83
2019-01-10T16:17:26.324Z,1.76
2019-01-10T16:18:26.316Z,1.74
2019-01-10T16:19:26.301Z,1.76
2019-01-10T16:20:26.288Z,1.69
2019-01-10T16:21:26.299Z,1.71
2019-01-10T16:22:26.269Z,1.66
2019-01-10T16:23:26.257Z,1.69
2019-01-10T16:24:26.244Z,1.69
2019-01-10T16:25:26.237Z,1.72
2019-01-10T16:26:26.231Z,1.71
2019-01-10T16:27:26.237Z,1.64
2019-01-10T16:28:26.202Z,1.58
2019-01-10T16:29:26.196Z,1.64
2019-01-10T16:30:27.362Z,1.60
2019-01-10T16:31:26.177Z,1.64
2019-01-10T16:32:26.161Z,1.61
2019-01-10T16:33:26.177Z,1.64
2019-01-10T16:34:26.192Z,1.66
2019-01-10T16:35:26.131Z,1.64
2019-01-10T16:36:26.130Z,1.61
2019-01-10T16:37:26.117Z,1.53
2019-01-10T16:38:26.099Z,1.65
2019-01-10T16:39:26.131Z,1.68
2019-01-10T16:40:26.080Z,1.56
2019-01-10T16:41:26.080Z,1.58
2019-01-10T16:42:26.068Z,1.54
2019-01-10T16:43:26.050Z,1.61
2019-01-10T16:44:26.037Z,1.57
2019-01-10T16:45:26.040Z,1.56
2019-01-10T16:46:26.024Z,1.54
2019-01-10T16:47:31.500Z,1.58
2019-01-10T16:48:26.993Z,1.57
2019-01-10T16:49:26.011Z,1.57
2019-01-10T16:50:25.973Z,1.60
2019-01-10T16:51:25.988Z,1.58
2019-01-10T16:52:25.961Z,1.56
2019-01-10T16:53:25.956Z,1.61
2019-01-10T16:54:25.957Z,1.57
2019-01-10T16:55:25.926Z,1.64
2019-01-10T16:56:25.913Z,1.61
2019-01-10T16:57:25.934Z,1.60
2019-01-10T16:58:25.893Z,1.57
2019-01-10T16:59:25.884Z,1.58
2019-01-10T17:00:25.877Z,1.57
2019-01-10T17:01:25.862Z,1.58
2019-01-10T17:02:25.856Z,1.64
2019-01-10T17:03:25.862Z,1.68
2019-01-10T17:04:25.838Z,1.57
2019-01-10T17:05:25.826Z,1.64
2019-01-10T17:06:25.810Z,1.46
2019-01-10T17:07:26.290Z,1.61
2019-01-10T17:08:25.845Z,1.54
2019-01-10T17:09:25.798Z,1.48
2019-01-10T17:10:25.786Z,1.53
2019-01-10T17:11:25.753Z,1.44
2019-01-10T17:12:25.746Z,1.54
2019-01-10T17:13:25.740Z,1.56
2019-01-10T17:14:25.727Z,1.44
2019-01-10T17:15:25.758Z,1.44
2019-01-10T17:16:25.725Z,1.42
2019-01-10T17:17:25.692Z,1.46
2019-01-10T17:18:25.683Z,1.53
2019-01-10T17:19:25.675Z,1.47
2019-01-10T17:20:25.666Z,1.50
2019-01-10T17:21:25.711Z,1.54
2019-01-10T17:22:25.640Z,1.38
2019-01-10T17:23:25.633Z,1.46
2019-01-10T17:24:25.625Z,1.30
2019-01-10T17:25:25.666Z,1.32
2019-01-10T17:26:25.656Z,1.35
2019-01-10T17:27:25.615Z,1.26
2019-01-10T17:28:25.579Z,1.32
2019-01-10T17:29:25.566Z,1.38
2019-01-10T17:30:25.598Z,1.36
2019-01-10T17:31:25.560Z,1.32
2019-01-10T17:32:25.551Z,1.21
2019-01-10T17:33:25.550Z,1.21
2019-01-10T17:34:25.521Z,1.26
2019-01-10T17:35:25.515Z,1.11
2019-01-10T17:36:25.501Z,1.12
2019-01-10T17:37:25.499Z,1.04
2019-01-10T17:38:25.483Z,1.04
2019-01-10T17:39:25.483Z,1.02
2019-01-10T17:40:25.455Z,1.04
2019-01-10T17:41:25.453Z,1.12
2019-01-10T17:42:25.443Z,1.12
2019-01-10T17:43:25.420Z,1.11
2019-01-10T17:44:25.416Z,1.07
2019-01-10T17:45:25.420Z,1.07
2019-01-10T17:46:25.399Z,1.02
2019-01-10T17:47:25.385Z,1.04
2019-01-10T17:48:25.385Z,1.02
2019-01-10T17:49:25.363Z,1.03
2019-01-10T17:50:25.368Z,1.10
2019-01-10T17:51:25.356Z,1.00
2019-01-10T17:52:25.328Z,0.99
2019-01-10T17:53:26.138Z,1.00
2019-01-10T17:54:25.325Z,1.03
2019-01-10T17:55:25.302Z,1.07
2019-01-10T17:56:25.289Z,1.02
2019-01-10T17:57:25.310Z,1.04
2019-01-10T17:58:25.269Z,1.11
2019-01-10T17:59:25.267Z,1.08
2019-01-10T18:00:25.256Z,1.07
2019-01-10T18:01:25.233Z,1.07
2019-01-10T18:02:25.239Z,1.04
2019-01-10T18:03:25.237Z,1.00
2019-01-10T18:04:25.211Z,1.10
2019-01-10T18:05:25.195Z,1.07
2019-01-10T18:06:25.192Z,1.02
2019-01-10T18:07:25.176Z,1.04
2019-01-10T18:08:25.179Z,0.99
2019-01-10T18:09:25.190Z,1.02
2019-01-10T18:10:25.150Z,0.97
2019-01-10T18:11:25.138Z,1.04
2019-01-10T18:12:25.153Z,1.10
2019-01-10T18:13:25.112Z,1.03
2019-01-10T18:14:25.109Z,1.12
2019-01-10T18:15:25.116Z,1.15
2019-01-10T18:16:25.080Z,1.18
2019-01-10T18:17:25.079Z,1.32
2019-01-10T18:18:25.070Z,1.29
2019-01-10T18:19:25.053Z,1.28
2019-01-10T18:20:25.048Z,1.21
2019-01-10T18:21:25.053Z,1.22
2019-01-10T18:22:25.021Z,1.20
2019-01-10T18:23:25.021Z,1.12
2019-01-10T18:24:25.009Z,1.24
2019-01-10T18:25:25.010Z,1.20
2019-01-10T18:26:24.983Z,1.15
2019-01-10T18:27:24.996Z,1.14
2019-01-10T18:28:24.961Z,1.24
2019-01-10T18:29:25.002Z,1.15
2019-01-10T18:30:24.939Z,1.35
2019-01-10T18:31:24.931Z,1.35
2019-01-10T18:32:24.924Z,1.30
2019-01-10T18:33:24.916Z,1.33
2019-01-10T18:34:24.903Z,1.35
2019-01-10T18:35:26.462Z,1.20
2019-01-10T18:36:24.871Z,1.15
2019-01-10T18:37:24.864Z,1.22
2019-01-10T18:38:24.877Z,1.21
2019-01-10T18:39:24.857Z,1.29
2019-01-10T18:40:24.839Z,1.33
2019-01-10T18:41:24.816Z,1.32
2019-01-10T18:42:24.825Z,1.35
2019-01-10T18:43:24.797Z,1.33
2019-01-10T18:44:24.828Z,1.35
2019-01-10T18:45:24.829Z,1.38
2019-01-10T18:46:25.172Z,1.40
2019-01-10T18:47:24.752Z,1.33
2019-01-10T18:48:24.742Z,1.40
2019-01-10T18:49:24.746Z,1.33
2019-01-10T18:50:24.736Z,1.29
2019-01-10T18:51:24.746Z,1.35
2019-01-10T18:52:24.742Z,1.36
2019-01-10T18:53:24.694Z,1.28
2019-01-10T18:54:24.685Z,1.30
2019-01-10T18:55:24.674Z,1.30
2019-01-10T18:56:24.672Z,1.30
2019-01-10T18:57:24.685Z,1.29
2019-01-10T18:58:24.644Z,1.33
2019-01-10T18:59:24.633Z,1.30
2019-01-10T19:00:24.625Z,1.21
2019-01-10T19:01:24.611Z,1.20
2019-01-10T19:02:24.611Z,1.24
2019-01-10T19:03:24.622Z,1.18
2019-01-10T19:04:24.578Z,1.15
2019-01-10T19:05:24.585Z,1.12
2019-01-10T19:06:24.560Z,1.12
2019-01-10T19:07:24.553Z,1.17
2019-01-10T19:08:24.551Z,1.18
2019-01-10T19:09:24.569Z,1.17
2019-01-10T19:10:24.524Z,1.33
2019-01-10T19:11:24.521Z,1.39
2019-01-10T19:12:24.512Z,1.39
2019-01-10T19:13:24.492Z,1.39
2019-01-10T19:14:24.486Z,1.38
2019-01-10T19:15:24.502Z,1.42
2019-01-10T19:16:24.459Z,1.39
2019-01-10T19:17:26.208Z,1.44
2019-01-10T19:18:24.436Z,1.40
2019-01-10T19:19:24.431Z,1.42
2019-01-10T19:20:24.421Z,1.42
2019-01-10T19:21:24.433Z,1.38
2019-01-10T19:22:24.400Z,1.39
2019-01-10T19:23:24.401Z,1.39
2019-01-10T19:24:24.375Z,1.42
2019-01-10T19:25:24.382Z,1.36
2019-01-10T19:26:24.350Z,1.38
2019-01-10T19:27:24.359Z,1.39
2019-01-10T19:28:24.335Z,1.44
2019-01-10T19:29:24.319Z,1.51
2019-01-10T19:30:24.319Z,1.44
2019-01-10T19:31:24.302Z,1.40
2019-01-10T19:32:24.296Z,1.39
2019-01-10T19:33:24.296Z,1.40
2019-01-10T19:34:24.270Z,1.39
2019-01-10T19:35:24.271Z,1.39
2019-01-10T19:36:24.252Z,1.38
2019-01-10T19:37:24.245Z,1.47
2019-01-10T19:38:24.233Z,1.38
2019-01-10T19:39:24.249Z,1.40
2019-01-10T19:40:24.221Z,1.53
2019-01-10T19:41:24.200Z,1.65
2019-01-10T19:42:24.194Z,1.58
2019-01-10T19:43:24.187Z,1.53
2019-01-10T19:44:24.171Z,1.57
2019-01-10T19:45:24.175Z,1.53
2019-01-10T19:46:24.142Z,1.47
2019-01-10T19:47:24.139Z,1.48
2019-01-10T19:48:24.125Z,1.61
2019-01-10T19:49:24.111Z,1.61
2019-01-10T19:50:24.101Z,1.60
2019-01-10T19:51:24.124Z,1.50
2019-01-10T19:52:24.079Z,1.50
2019-01-10T19:53:24.066Z,1.50
2019-01-10T19:54:24.059Z,1.57
2019-01-10T19:55:24.053Z,1.54
2019-01-10T19:56:24.040Z,1.51
2019-01-10T19:57:24.053Z,1.54
2019-01-10T19:58:24.018Z,1.60
2019-01-10T19:59:24.106Z,1.57
2019-01-10T20:00:24.005Z,1.60
2019-01-10T20:01:23.995Z,1.47
2019-01-10T20:02:31.023Z,1.54
2019-01-10T20:03:23.967Z,1.47
2019-01-10T20:04:23.980Z,1.56
2019-01-10T20:05:23.945Z,1.53
2019-01-10T20:06:23.951Z,1.56
2019-01-10T20:07:23.925Z,1.47
2019-01-10T20:08:23.977Z,1.39
2019-01-10T20:09:29.854Z,1.35
2019-01-10T20:10:24.916Z,1.38
2019-01-10T20:11:23.884Z,1.40
2019-01-10T20:12:23.925Z,1.42
2019-01-10T20:13:23.878Z,1.40
2019-01-10T20:14:23.877Z,1.47
2019-01-10T20:15:23.848Z,1.53
2019-01-10T20:16:23.852Z,1.51
2019-01-10T20:17:23.826Z,1.38
2019-01-10T20:18:23.826Z,1.47
2019-01-10T20:19:23.858Z,1.51
2019-01-10T20:20:23.823Z,1.44
2019-01-10T20:21:23.791Z,1.35
2019-01-10T20:22:23.768Z,1.40
2019-01-10T20:23:23.799Z,1.38
2019-01-10T20:24:23.799Z,1.54
2019-01-10T20:25:23.733Z,1.60
2019-01-10T20:26:23.743Z,1.60
2019-01-10T20:27:23.720Z,1.54
2019-01-10T20:28:23.836Z,1.56
2019-01-10T20:29:23.842Z,1.58
2019-01-10T20:30:23.743Z,1.57
2019-01-10T20:31:23.691Z,1.50
2019-01-10T20:32:23.704Z,1.61
2019-01-10T20:33:23.655Z,1.54
2019-01-10T20:34:23.642Z,1.48
2019-01-10T20:35:23.637Z,1.53
2019-01-10T20:36:23.622Z,1.51
2019-01-10T20:37:23.614Z,1.50
2019-01-10T20:38:23.616Z,1.57
2019-01-10T20:39:23.590Z,1.61
2019-01-10T20:40:23.578Z,1.46
2019-01-10T20:41:23.567Z,1.48
2019-01-10T20:42:23.593Z,1.61
2019-01-10T20:43:23.566Z,1.50
2019-01-10T20:44:23.596Z,1.61
2019-01-10T20:45:23.536Z,1.56
2019-01-10T20:46:23.534Z,1.36
2019-01-10T20:47:23.541Z,1.36
2019-01-10T20:48:23.514Z,1.39
2019-01-10T20:49:23.491Z,1.38
2019-01-10T20:50:23.494Z,1.35
2019-01-10T20:51:23.472Z,1.36
2019-01-10T20:52:23.460Z,1.29
2019-01-10T20:53:23.444Z,1.32
2019-01-10T20:54:23.434Z,1.15
2019-01-10T20:55:23.424Z,1.21
2019-01-10T20:56:23.434Z,1.22
2019-01-10T20:57:23.402Z,1.20
2019-01-10T20:58:23.392Z,1.15
2019-01-10T20:59:23.377Z,1.26
2019-01-10T21:00:23.373Z,1.22
2019-01-10T21:01:23.364Z,1.21
2019-01-10T21:02:23.370Z,1.18
2019-01-10T21:03:23.338Z,1.35
2019-01-10T21:04:23.329Z,1.32
2019-01-10T21:05:23.389Z,1.33
2019-01-10T21:06:23.365Z,1.35
2019-01-10T21:07:23.326Z,1.33
2019-01-10T21:08:23.415Z,1.38
2019-01-10T21:09:23.277Z,1.32
2019-01-10T21:10:23.284Z,1.44
2019-01-10T21:11:23.285Z,1.42
2019-01-10T21:12:23.245Z,1.38
2019-01-10T21:13:23.232Z,1.39
2019-01-10T21:14:23.303Z,1.42
2019-01-10T21:15:23.221Z,1.39
2019-01-10T21:16:23.209Z,1.36
2019-01-10T21:17:23.190Z,1.40
2019-01-10T21:18:28.668Z,1.36
2019-01-10T21:19:24.183Z,1.40
2019-01-10T21:20:23.164Z,1.35
2019-01-10T21:21:23.155Z,1.46
2019-01-10T21:22:23.145Z,1.38
2019-01-10T21:23:23.126Z,1.56
2019-01-10T21:24:23.116Z,1.48
2019-01-10T21:25:23.126Z,1.54
2019-01-10T21:26:23.102Z,1.54
2019-01-10T21:27:23.094Z,1.54
2019-01-10T21:28:24.409Z,1.42
2019-01-10T21:29:23.073Z,1.40
2019-01-10T21:30:23.056Z,1.48
2019-01-10T21:31:23.062Z,1.38
2019-01-10T21:32:23.041Z,1.33
2019-01-10T21:33:23.025Z,1.33
2019-01-10T21:34:23.018Z,1.24
2019-01-10T21:35:23.021Z,1.15
2019-01-10T21:36:22.999Z,1.21
2019-01-10T21:37:23.007Z,1.20
2019-01-10T21:38:22.977Z,1.26
2019-01-10T21:39:22.991Z,1.26
2019-01-10T21:40:22.970Z,1.17
2019-01-10T21:41:22.944Z,1.08
2019-01-10T21:42:22.932Z,0.89
2019-01-10T21:43:23.028Z,0.84
2019-01-10T21:44:22.910Z,0.82
2019-01-10T21:45:22.906Z,0.86
2019-01-10T21:46:22.893Z,0.89
2019-01-10T21:47:22.883Z,1.02
2019-01-10T21:48:22.880Z,0.96
2019-01-10T21:49:22.906Z,1.04
2019-01-10T21:50:22.848Z,1.07
2019-01-10T21:51:22.845Z,1.04
2019-01-10T21:52:22.829Z,1.04
2019-01-10T21:53:22.820Z,1.02
2019-01-10T21:54:22.812Z,1.04
2019-01-10T21:55:22.938Z,1.03
2019-01-10T21:56:22.787Z,1.03
2019-01-10T21:57:22.774Z,0.97
2019-01-10T21:58:22.764Z,0.94
2019-01-10T21:59:22.755Z,0.97
2019-01-10T22:00:22.749Z,1.00
2019-01-10T22:01:22.766Z,1.14
2019-01-10T22:02:22.726Z,1.15
2019-01-10T22:03:22.711Z,1.18
2019-01-10T22:04:22.700Z,1.10
2019-01-10T22:05:22.695Z,0.89
2019-01-10T22:06:22.684Z,0.84
2019-01-10T22:07:22.691Z,0.75
2019-01-10T22:08:22.662Z,0.74
2019-01-10T22:09:22.652Z,0.76
2019-01-10T22:10:22.639Z,0.72
2019-01-10T22:11:22.639Z,0.81
2019-01-10T22:12:22.930Z,0.84
2019-01-10T22:13:22.927Z,0.90
2019-01-10T22:14:22.596Z,0.97
2019-01-10T22:15:22.588Z,1.07
2019-01-10T22:16:22.649Z,1.03
2019-01-10T22:17:22.568Z,1.03
2019-01-10T22:18:22.559Z,1.15
2019-01-10T22:19:22.570Z,1.11
2019-01-10T22:20:22.530Z,1.11
2019-01-10T22:21:22.530Z,1.14
2019-01-10T22:22:22.511Z,1.11
2019-01-10T22:23:22.505Z,1.17
2019-01-10T22:24:22.495Z,1.14
2019-01-10T22:25:22.498Z,1.11
2019-01-10T22:26:22.469Z,1.12
2019-01-10T22:27:22.462Z,1.24
2019-01-10T22:28:22.447Z,1.11
2019-01-10T22:29:22.440Z,1.20
2019-01-10T22:30:22.434Z,1.22
2019-01-10T22:31:22.433Z,1.22
2019-01-10T22:32:22.411Z,1.26
2019-01-10T22:33:22.398Z,1.20
2019-01-10T22:34:22.386Z,1.15
2019-01-10T22:35:22.379Z,1.17
2019-01-10T22:36:22.363Z,1.17
2019-01-10T22:37:28.781Z,1.20
2019-01-10T22:38:23.344Z,1.18
2019-01-10T22:39:22.338Z,1.26
2019-01-10T22:40:22.322Z,1.20
2019-01-10T22:41:22.315Z,1.14
2019-01-10T22:42:22.303Z,1.04
2019-01-10T22:43:22.315Z,1.12
2019-01-10T22:44:22.283Z,1.10
2019-01-10T22:45:22.274Z,1.14
2019-01-10T22:46:22.257Z,1.15
2019-01-10T22:47:22.257Z,1.17
2019-01-10T22:48:22.245Z,1.20
2019-01-10T22:49:22.250Z,1.15
2019-01-10T22:50:22.219Z,1.15
2019-01-10T22:51:22.210Z,1.12
2019-01-10T22:52:22.204Z,1.11
2019-01-10T22:53:22.187Z,1.17
2019-01-10T22:54:22.196Z,1.17
2019-01-10T22:55:22.193Z,1.22
2019-01-10T22:56:22.163Z,1.28
2019-01-10T22:57:22.163Z,1.15
2019-01-10T22:58:22.137Z,1.26
2019-01-10T22:59:22.140Z,1.18
2019-01-10T23:00:22.119Z,1.12
2019-01-10T23:01:22.188Z,1.11
2019-01-10T23:02:22.097Z,1.08
2019-01-10T23:03:22.090Z,1.00
2019-01-10T23:04:22.077Z,0.92
2019-01-10T23:05:22.065Z,0.92
2019-01-10T23:06:22.059Z,0.97
2019-01-10T23:07:22.067Z,1.02
2019-01-10T23:08:22.031Z,0.97
2019-01-10T23:09:22.021Z,0.94
2019-01-10T23:10:22.015Z,1.00
2019-01-10T23:11:22.002Z,0.92
2019-01-10T23:12:21.993Z,0.99
2019-01-10T23:13:22.011Z,0.96
2019-01-10T23:14:21.967Z,0.94
2019-01-10T23:15:21.958Z,0.97
2019-01-10T23:16:21.954Z,0.93
2019-01-10T23:17:21.935Z,0.89
2019-01-10T23:18:21.935Z,0.99
2019-01-10T23:19:21.938Z,0.90
2019-01-10T23:20:21.906Z,0.90
2019-01-10T23:21:21.900Z,0.86
2019-01-10T23:22:21.893Z,0.93